TimeEST,TemperatureF,Dew PointF,Humidity,Sea Level PressureIn,VisibilityMPH,Wind Direction,Wind SpeedMPH,Gust SpeedMPH,PrecipitationIn,Events,Conditions,WindDirDegrees,DateUTC
12:15 AM,17.1,13.1,84,30.06,10.0,West,3.5,-,N/A,,Overcast,280,2013-03-04 05:15:00
12:35 AM,17.2,13.1,84,30.06,10.0,West,5.8,-,N/A,,Overcast,270,2013-03-04 05:35:00
12:55 AM,16.5,12.7,85,30.06,10.0,West,4.6,-,N/A,,Mostly Cloudy,270,2013-03-04 05:55:00
1:15 AM,15.1,11.5,86,30.06,10.0,West,4.6,-,N/A,,Mostly Cloudy,260,2013-03-04 06:15:00
1:35 AM,13.6,10.4,87,30.07,10.0,West,4.6,-,N/A,,Scattered Clouds,260,2013-03-04 06:35:00
1:55 AM,13.1,10.2,88,30.07,10.0,West,3.5,-,N/A,,Scattered Clouds,270,2013-03-04 06:55:00
2:15 AM,12.0,9.0,88,30.07,10.0,West,4.6,-,N/A,,Mostly Cloudy,260,2013-03-04 07:15:00
2:35 AM,11.7,8.6,88,30.07,10.0,West,3.5,-,N/A,,Scattered Clouds,260,2013-03-04 07:35:00
2:56 AM,9.9,6.8,87,30.07,10.0,WSW,5.8,-,N/A,,Scattered Clouds,250,2013-03-04 07:56:00
3:15 AM,8.4,5.2,87,30.07,10.0,West,3.5,-,N/A,,Scattered Clouds,260,2013-03-04 08:15:00
3:55 AM,10.4,7.7,89,30.07,10.0,West,3.5,-,N/A,,Mostly Cloudy,260,2013-03-04 08:55:00
4:15 AM,11.3,8.2,87,30.08,10.0,West,4.6,-,N/A,,Mostly Cloudy,270,2013-03-04 09:15:00
4:35 AM,12.2,8.8,86,30.08,10.0,West,5.8,-,N/A,,Overcast,270,2013-03-04 09:35:00
4:55 AM,12.9,9.3,86,30.08,10.0,West,5.8,-,N/A,,Overcast,270,2013-03-04 09:55:00
5:15 AM,14.0,10.2,85,30.09,10.0,West,5.8,-,N/A,,Overcast,270,2013-03-04 10:15:00
5:35 AM,13.6,9.9,85,30.10,10.0,West,5.8,-,N/A,,Overcast,270,2013-03-04 10:35:00
5:55 AM,13.8,9.5,83,30.10,10.0,West,5.8,-,N/A,,Overcast,270,2013-03-04 10:55:00
6:15 AM,13.8,10.0,85,30.11,10.0,West,5.8,-,N/A,,Overcast,270,2013-03-04 11:15:00
6:35 AM,13.6,9.7,84,30.11,10.0,West,5.8,-,N/A,,Overcast,270,2013-03-04 11:35:00
6:55 AM,13.1,9.1,84,30.11,10.0,West,5.8,-,N/A,,Overcast,260,2013-03-04 11:55:00
7:15 AM,12.7,8.6,84,30.11,10.0,West,4.6,-,N/A,,Overcast,270,2013-03-04 12:15:00
7:35 AM,12.0,8.1,84,30.10,10.0,West,5.8,-,N/A,,Mostly Cloudy,270,2013-03-04 12:35:00
7:55 AM,12.0,7.9,83,30.11,10.0,West,5.8,-,N/A,,Mostly Cloudy,270,2013-03-04 12:55:00
8:15 AM,12.9,8.6,83,30.11,10.0,WNW,4.6,-,N/A,,Overcast,290,2013-03-04 13:15:00
8:35 AM,14.7,10.4,83,30.11,10.0,West,3.5,-,N/A,,Overcast,280,2013-03-04 13:35:00
8:54 AM,15.8,11.1,82,30.12,10.0,WNW,3.5,-,N/A,,Mostly Cloudy,290,2013-03-04 13:54:00
9:15 AM,17.8,12.4,79,30.12,10.0,NNW,8.1,-,N/A,,Overcast,340,2013-03-04 14:15:00
9:35 AM,19.4,12.9,76,30.13,10.0,NNW,6.9,-,N/A,,Mostly Cloudy,340,2013-03-04 14:35:00
9:55 AM,19.8,12.6,74,30.12,10.0,NNW,8.1,-,N/A,,Scattered Clouds,340,2013-03-04 14:55:00
10:15 AM,20.3,12.7,73,30.13,10.0,North,9.2,-,N/A,,Clear,350,2013-03-04 15:15:00
10:35 AM,20.3,12.9,73,30.13,10.0,NW,8.1,-,N/A,,Clear,320,2013-03-04 15:35:00
10:55 AM,20.3,13.1,74,30.13,10.0,NNW,9.2,-,N/A,,Clear,340,2013-03-04 15:55:00
11:15 AM,20.3,13.1,74,30.13,10.0,NNW,9.2,-,N/A,,Clear,340,2013-03-04 16:15:00
11:35 AM,20.3,13.1,74,30.13,10.0,NW,9.2,-,N/A,,Clear,320,2013-03-04 16:35:00
11:55 AM,20.8,13.1,72,30.13,10.0,NW,9.2,-,N/A,,Clear,320,2013-03-04 16:55:00
12:15 PM,21.2,14.0,74,30.13,10.0,NNW,11.5,-,N/A,,Clear,340,2013-03-04 17:15:00
12:35 PM,21.9,14.4,73,30.13,10.0,North,12.7,-,N/A,,Clear,350,2013-03-04 17:35:00
12:55 PM,21.7,14.5,74,30.12,10.0,North,10.4,-,N/A,,Clear,350,2013-03-04 17:55:00
1:15 PM,22.1,15.1,74,30.12,10.0,North,11.5,-,N/A,,Clear,350,2013-03-04 18:15:00
1:55 PM,22.1,15.1,74,30.11,10.0,North,12.7,-,N/A,,Clear,350,2013-03-04 18:55:00
2:15 PM,22.6,15.6,74,30.11,10.0,North,10.4,-,N/A,,Clear,360,2013-03-04 19:15:00
2:35 PM,23.0,15.8,74,30.10,10.0,North,10.4,-,N/A,,Clear,350,2013-03-04 19:35:00
2:56 PM,23.4,16.0,73,30.10,10.0,NNW,9.2,-,N/A,,Clear,340,2013-03-04 19:56:00
3:15 PM,23.9,16.0,72,30.10,10.0,North,8.1,-,N/A,,Clear,350,2013-03-04 20:15:00
3:35 PM,25.0,17.2,72,30.10,10.0,NNW,6.9,-,N/A,,Clear,340,2013-03-04 20:35:00
3:55 PM,25.5,15.6,66,30.10,10.0,NNW,10.4,-,N/A,,Clear,340,2013-03-04 20:55:00
4:15 PM,26.2,13.1,58,30.10,10.0,NNW,8.1,16.1,N/A,,Clear,340,2013-03-04 21:15:00
4:35 PM,26.4,13.3,58,30.10,10.0,NNW,9.2,-,N/A,,Clear,330,2013-03-04 21:35:00
4:55 PM,26.4,10.8,52,30.10,10.0,NNW,10.4,-,N/A,,Clear,330,2013-03-04 21:55:00
5:15 PM,26.2,9.5,49,30.11,10.0,NNW,9.2,-,N/A,,Clear,330,2013-03-04 22:15:00
5:35 PM,25.7,9.1,50,30.11,10.0,NW,8.1,-,N/A,,Clear,310,2013-03-04 22:35:00
5:55 PM,25.7,8.6,48,30.11,10.0,NW,3.5,-,N/A,,Clear,320,2013-03-04 22:55:00
6:15 PM,25.7,9.1,50,30.12,10.0,NW,3.5,-,N/A,,Clear,310,2013-03-04 23:15:00
6:36 PM,24.4,9.5,53,30.12,10.0,West,3.5,-,N/A,,Clear,280,2013-03-04 23:36:00
6:55 PM,23.4,10.4,58,30.12,10.0,WNW,4.6,-,N/A,,Clear,290,2013-03-04 23:55:00
7:15 PM,23.2,10.6,59,30.12,10.0,West,4.6,-,N/A,,Clear,270,2013-03-05 00:15:00
7:35 PM,21.4,10.4,63,30.12,10.0,West,4.6,-,N/A,,Clear,260,2013-03-05 00:35:00
7:55 PM,21.7,10.4,62,30.13,10.0,West,5.8,-,N/A,,Clear,270,2013-03-05 00:55:00
8:15 PM,21.4,10.0,62,30.13,10.0,West,3.5,-,N/A,,Clear,270,2013-03-05 01:15:00
8:35 PM,20.8,9.3,61,30.13,10.0,West,4.6,-,N/A,,Clear,270,2013-03-05 01:35:00
8:55 PM,20.3,9.0,62,30.13,10.0,West,5.8,-,N/A,,Clear,270,2013-03-05 01:55:00
9:35 PM,19.4,8.1,61,30.14,10.0,West,4.6,-,N/A,,Clear,280,2013-03-05 02:35:00
9:55 PM,19.0,8.4,63,30.14,10.0,West,5.8,-,N/A,,Clear,270,2013-03-05 02:55:00
10:15 PM,18.9,8.6,64,30.14,10.0,West,4.6,-,N/A,,Clear,270,2013-03-05 03:15:00
10:35 PM,18.3,8.6,66,30.14,10.0,West,4.6,-,N/A,,Clear,270,2013-03-05 03:35:00
10:55 PM,18.9,9.3,66,30.14,10.0,West,5.8,-,N/A,,Clear,270,2013-03-05 03:55:00
11:15 PM,18.9,10.2,69,30.13,10.0,WNW,4.6,-,N/A,,Clear,290,2013-03-05 04:15:00
11:35 PM,15.8,9.0,74,30.13,10.0,West,3.5,-,N/A,,Clear,280,2013-03-05 04:35:00
11:55 PM,12.9,8.4,82,30.14,10.0,Calm,Calm,-,N/A,,Clear,0,2013-03-05 04:55:00